Time;durP1;ratioP1;P1;durP2;ratioP2;P2;SDS_P1;SDS_P2;PMS_P1;PMS_P2;Temp;Humidity;BMP_temperature;BMP_pressure;BME280_temperature;BME280_humidity;BME280_pressure;Samples;Min_cycle;Max_cycle;Signal;HPM_P1;HPM_P2
2021/10/26 00:01:05;;;;;;;37.10;10.00;;;12.30;99.90;;;;;;5052565;28;20462;-86
2021/10/26 00:03:32;;;;;;;33.00;7.77;;;12.30;99.90;;;;;;5043121;28;20488;-86
2021/10/26 00:05:59;;;;;;;33.60;8.27;;;12.30;99.90;;;;;;5037930;28;20461;-86
2021/10/26 00:08:26;;;;;;;33.20;8.83;;;12.30;99.90;;;;;;5038978;28;20458;-86
2021/10/26 00:10:53;;;;;;;36.80;8.63;;;12.30;99.90;;;;;;5054736;28;21015;-86
2021/10/26 00:13:21;;;;;;;34.33;8.23;;;12.30;99.90;;;;;;5044608;28;20559;-86
2021/10/26 00:15:48;;;;;;;35.70;9.20;;;12.20;99.90;;;;;;5048077;28;20455;-85
2021/10/26 00:18:15;;;;;;;32.50;8.87;;;12.20;99.90;;;;;;5042009;28;20551;-85
2021/10/26 00:20:42;;;;;;;38.10;10.30;;;12.20;99.90;;;;;;5050375;28;20457;-86
2021/10/26 00:23:09;;;;;;;30.93;7.70;;;12.10;99.90;;;;;;5040086;28;20478;-86
2021/10/26 00:25:37;;;;;;;31.73;7.73;;;12.20;99.90;;;;;;5043513;28;20475;-86
2021/10/26 00:28:04;;;;;;;30.90;7.90;;;12.20;99.90;;;;;;5047111;28;20462;-86
2021/10/26 00:30:32;;;;;;;31.33;7.63;;;12.20;99.90;;;;;;5047183;28;20490;-85
2021/10/26 00:32:59;;;;;;;32.23;8.07;;;12.20;99.90;;;;;;5042410;28;20476;-86
2021/10/26 00:35:28;;;;;;;31.17;7.90;;;12.20;99.90;;;;;;5039447;28;20463;-86
2021/10/26 00:37:55;;;;;;;33.20;8.70;;;12.20;99.90;;;;;;5036734;28;20460;-86
2021/10/26 00:40:21;;;;;;;31.73;7.50;;;12.20;99.90;;;;;;5041303;28;20494;-86
2021/10/26 00:42:48;;;;;;;30.80;7.27;;;12.20;99.90;;;;;;5051809;28;20903;-86
2021/10/26 00:45:15;;;;;;;31.63;8.80;;;12.20;99.90;;;;;;5059976;28;20462;-86
2021/10/26 00:47:43;;;;;;;31.07;7.20;;;12.20;99.90;;;;;;5048908;28;20463;-86
2021/10/26 00:50:10;;;;;;;29.57;7.20;;;12.30;99.90;;;;;;5038850;28;21020;-85
2021/10/26 00:52:37;;;;;;;30.53;8.13;;;12.30;99.90;;;;;;5042324;28;20465;-86
2021/10/26 00:55:05;;;;;;;35.57;9.27;;;12.20;99.90;;;;;;5039930;28;20956;-87
2021/10/26 00:57:32;;;;;;;32.70;6.50;;;12.20;99.90;;;;;;5039470;28;20457;-86
2021/10/26 00:59:59;;;;;;;30.50;7.93;;;12.10;99.90;;;;;;5054101;28;20469;-86
2021/10/26 01:02:26;;;;;;;31.83;7.50;;;12.10;99.90;;;;;;5049911;28;20456;-86
2021/10/26 01:04:55;;;;;;;31.23;7.03;;;12.00;99.90;;;;;;5037976;28;20489;-86
2021/10/26 01:07:21;;;;;;;32.17;8.43;;;12.10;99.90;;;;;;5045806;28;20467;-86
2021/10/26 01:09:48;;;;;;;32.27;8.90;;;12.00;99.90;;;;;;5054486;28;20491;-86
2021/10/26 01:12:15;;;;;;;31.60;8.17;;;12.00;99.90;;;;;;5044870;28;21052;-86
2021/10/26 01:14:42;;;;;;;33.40;10.20;;;12.00;99.90;;;;;;5039507;28;20475;-85
2021/10/26 01:17:11;;;;;;;29.57;7.00;;;11.90;99.90;;;;;;5046009;28;20491;-86
2021/10/26 01:19:46;;;;;;;32.83;7.57;;;12.00;99.90;;;;;;5041159;28;20450;-86
2021/10/26 01:22:14;;;;;;;31.60;8.77;;;12.00;99.90;;;;;;5037895;28;20467;-86
2021/10/26 01:24:41;;;;;;;34.20;7.97;;;12.00;99.90;;;;;;5058768;28;20494;-86
2021/10/26 01:27:08;;;;;;;32.97;6.97;;;12.00;99.90;;;;;;5057516;28;20452;-85
2021/10/26 01:29:35;;;;;;;35.70;8.87;;;12.10;99.90;;;;;;5051121;28;20977;-84
2021/10/26 01:32:03;;;;;;;32.03;7.50;;;12.00;99.90;;;;;;5042893;28;20462;-85
2021/10/26 01:34:30;;;;;;;33.23;7.70;;;12.00;99.90;;;;;;5036032;28;20485;-85
2021/10/26 01:37:00;;;;;;;33.43;7.00;;;12.10;99.90;;;;;;5038172;28;20472;-85
2021/10/26 01:39:27;;;;;;;30.03;7.53;;;12.20;99.90;;;;;;5040980;28;20813;-85
2021/10/26 01:41:53;;;;;;;33.57;7.97;;;12.10;99.90;;;;;;5054491;28;20448;-85
2021/10/26 01:44:20;;;;;;;32.40;8.03;;;12.10;99.90;;;;;;5075836;22;20491;-81
2021/10/26 01:46:47;;;;;;;36.43;10.10;;;12.10;99.90;;;;;;5037401;28;20464;-81
2021/10/26 01:49:14;;;;;;;31.60;8.10;;;12.20;99.90;;;;;;5037388;28;20953;-81
2021/10/26 01:51:41;;;;;;;33.63;7.67;;;12.20;99.90;;;;;;5050325;28;20456;-82
2021/10/26 01:54:09;;;;;;;31.97;7.63;;;12.20;99.90;;;;;;5044133;28;20574;-81
2021/10/26 01:56:36;;;;;;;34.10;7.43;;;12.30;99.90;;;;;;5057249;28;20467;-81
2021/10/26 01:59:04;;;;;;;31.83;8.20;;;12.20;99.90;;;;;;5057287;28;20462;-82
2021/10/26 02:01:31;;;;;;;39.47;8.97;;;12.20;99.90;;;;;;5056982;28;20462;-81
2021/10/26 02:03:57;;;;;;;32.77;8.50;;;12.10;99.90;;;;;;5063356;28;20477;-81
2021/10/26 02:06:24;;;;;;;31.63;8.50;;;12.20;99.90;;;;;;5057029;28;20460;-80
2021/10/26 02:08:51;;;;;;;32.60;8.50;;;12.20;99.90;;;;;;5056963;28;20458;-81
2021/10/26 02:11:19;;;;;;;33.83;7.77;;;12.20;99.90;;;;;;5057512;28;20493;-81
2021/10/26 02:13:46;;;;;;;33.63;7.57;;;12.20;99.90;;;;;;5057450;28;21017;-80
2021/10/26 02:16:13;;;;;;;31.43;7.63;;;12.20;99.90;;;;;;5061392;28;20467;-81
2021/10/26 02:18:40;;;;;;;34.23;7.37;;;12.30;99.90;;;;;;5061254;28;20477;-80
2021/10/26 02:21:07;;;;;;;34.97;8.40;;;12.30;99.90;;;;;;5061846;28;20455;-79
2021/10/26 02:23:34;;;;;;;32.50;9.03;;;12.20;99.90;;;;;;5065564;28;20521;-80
2021/10/26 02:26:01;;;;;;;34.03;9.10;;;12.10;99.90;;;;;;5069416;28;20459;-79
2021/10/26 02:28:29;;;;;;;34.30;8.47;;;12.10;99.90;;;;;;5061489;28;20467;-80
2021/10/26 02:30:56;;;;;;;34.90;7.83;;;12.20;99.90;;;;;;5059040;28;20486;-80
2021/10/26 02:33:22;;;;;;;34.67;8.30;;;12.20;99.90;;;;;;5058532;28;20455;-80
2021/10/26 02:35:49;;;;;;;34.80;8.43;;;12.20;99.90;;;;;;5051000;28;20529;-80
2021/10/26 02:38:16;;;;;;;35.50;8.60;;;12.20;99.90;;;;;;5063758;28;20448;-80
2021/10/26 02:40:43;;;;;;;33.53;8.80;;;12.20;99.90;;;;;;5059676;28;20451;-80
2021/10/26 02:43:10;;;;;;;34.90;8.60;;;12.20;99.90;;;;;;5059508;28;20549;-80
2021/10/26 02:45:39;;;;;;;31.40;7.30;;;12.20;99.90;;;;;;5049624;28;21008;-80
2021/10/26 02:48:06;;;;;;;38.90;10.50;;;12.30;99.90;;;;;;5058332;28;21015;-80
2021/10/26 02:50:33;;;;;;;35.70;9.30;;;12.30;99.90;;;;;;5058837;28;20502;-80
2021/10/26 02:53:00;;;;;;;38.57;9.70;;;12.30;99.90;;;;;;5060024;28;20461;-80
2021/10/26 02:55:27;;;;;;;36.30;9.17;;;12.30;99.90;;;;;;5053163;28;20486;-79
2021/10/26 02:57:54;;;;;;;37.67;12.23;;;12.40;99.90;;;;;;5055893;28;20464;-79
2021/10/26 03:00:20;;;;;;;34.70;10.00;;;12.40;99.90;;;;;;5056976;28;20461;-79
2021/10/26 03:02:48;;;;;;;37.30;9.77;;;12.40;99.90;;;;;;5053205;28;20825;-80
2021/10/26 03:05:15;;;;;;;34.50;10.00;;;12.50;99.90;;;;;;5060109;28;20484;-80
2021/10/26 03:07:44;;;;;;;42.50;12.33;;;12.50;99.90;;;;;;5059805;28;20469;-79
2021/10/26 03:10:12;;;;;;;35.13;11.40;;;12.50;99.90;;;;;;5058794;28;21035;-79
2021/10/26 03:12:39;;;;;;;39.10;14.63;;;12.40;99.90;;;;;;5058474;28;20447;-79
2021/10/26 03:15:07;;;;;;;38.63;13.43;;;12.40;99.90;;;;;;5062992;28;20481;-79
2021/10/26 03:17:35;;;;;;;40.20;14.83;;;12.30;99.90;;;;;;5060488;28;20456;-80
2021/10/26 03:20:04;;;;;;;41.03;14.07;;;12.30;99.90;;;;;;5061369;28;20462;-80
2021/10/26 03:22:31;;;;;;;36.10;13.00;;;12.40;99.90;;;;;;5061294;28;20516;-80
2021/10/26 03:24:58;;;;;;;37.00;12.80;;;12.30;99.90;;;;;;5063287;28;20482;-79
2021/10/26 03:27:25;;;;;;;40.87;14.03;;;12.30;99.90;;;;;;5068928;28;20467;-80
2021/10/26 03:29:53;;;;;;;37.53;13.80;;;12.30;99.90;;;;;;5060373;28;20479;-79
2021/10/26 03:32:20;;;;;;;35.53;11.60;;;12.30;99.90;;;;;;5060549;28;20563;-79
2021/10/26 03:34:48;;;;;;;36.23;11.27;;;12.40;99.90;;;;;;5058784;28;20504;-79
2021/10/26 03:37:16;;;;;;;38.03;13.37;;;12.40;99.90;;;;;;5049619;28;20535;-79
2021/10/26 03:39:44;;;;;;;34.47;12.70;;;12.40;99.90;;;;;;5060341;28;20519;-79
2021/10/26 03:42:11;;;;;;;40.83;15.30;;;12.40;99.90;;;;;;5060635;28;20492;-79
2021/10/26 03:44:38;;;;;;;42.00;17.00;;;12.50;99.90;;;;;;5060912;28;20493;-80
2021/10/26 03:47:05;;;;;;;35.70;14.17;;;12.40;99.90;;;;;;5055460;28;20457;-79
2021/10/26 03:49:31;;;;;;;42.50;15.77;;;12.50;99.90;;;;;;5050714;28;20983;-79
2021/10/26 03:51:58;;;;;;;43.20;16.67;;;12.50;99.90;;;;;;5042383;28;20494;-80
2021/10/26 03:54:26;;;;;;;38.93;14.57;;;12.50;99.90;;;;;;5059838;28;20473;-79
2021/10/26 03:56:53;;;;;;;41.93;15.67;;;12.40;99.90;;;;;;5057775;28;20456;-80
2021/10/26 03:59:20;;;;;;;38.90;14.90;;;12.50;99.90;;;;;;5058199;28;20469;-79
2021/10/26 04:01:47;;;;;;;50.03;16.83;;;12.50;99.90;;;;;;5057438;28;20519;-80
2021/10/26 04:04:13;;;;;;;43.60;16.77;;;12.50;99.90;;;;;;5058064;28;20850;-80
2021/10/26 04:06:43;;;;;;;39.67;16.80;;;12.50;99.90;;;;;;5043086;28;20961;-79
2021/10/26 04:09:12;;;;;;;42.40;16.57;;;12.40;99.90;;;;;;5038462;28;20551;-80
2021/10/26 04:11:50;;;;;;;43.00;16.23;;;12.40;99.90;;;;;;5055606;28;20486;-79
2021/10/26 04:14:17;;;;;;;44.37;15.73;;;12.50;99.90;;;;;;5061005;28;21016;-78
2021/10/26 04:16:44;;;;;;;45.23;15.93;;;12.50;99.90;;;;;;5057291;28;20461;-78
2021/10/26 04:19:11;;;;;;;39.20;14.67;;;12.50;99.90;;;;;;5057763;28;20461;-80
2021/10/26 04:21:38;;;;;;;42.53;15.27;;;12.50;99.90;;;;;;5058992;28;20552;-80
2021/10/26 04:24:05;;;;;;;45.53;16.87;;;12.50;99.90;;;;;;5064983;28;20482;-80
2021/10/26 04:26:32;;;;;;;43.17;15.83;;;12.50;99.90;;;;;;5054897;28;20455;-79
2021/10/26 04:29:00;;;;;;;43.93;15.93;;;12.50;99.90;;;;;;5057041;28;20464;-79
2021/10/26 04:31:27;;;;;;;42.73;17.83;;;12.60;99.90;;;;;;5066245;28;20916;-80
2021/10/26 04:33:53;;;;;;;45.53;18.10;;;12.60;99.90;;;;;;5057029;28;20543;-79
2021/10/26 04:36:20;;;;;;;48.70;19.10;;;12.60;99.90;;;;;;5056745;28;20454;-80
2021/10/26 04:38:47;;;;;;;49.73;18.50;;;12.60;99.90;;;;;;5059129;28;20461;-80
2021/10/26 04:41:14;;;;;;;50.70;20.40;;;12.70;99.90;;;;;;5055076;28;20455;-79
2021/10/26 04:43:41;;;;;;;50.53;16.40;;;12.70;99.90;;;;;;5050290;28;21011;-81
2021/10/26 04:46:09;;;;;;;42.40;20.10;;;12.70;99.90;;;;;;5062866;28;20530;-80
2021/10/26 04:48:35;;;;;;;46.53;18.17;;;12.60;99.90;;;;;;5045538;28;20451;-80
2021/10/26 04:51:02;;;;;;;45.33;17.57;;;12.60;99.90;;;;;;5057235;28;20483;-80
2021/10/26 04:53:29;;;;;;;43.77;16.93;;;12.50;99.90;;;;;;5066656;28;20460;-80
2021/10/26 04:55:56;;;;;;;42.50;18.20;;;12.60;99.90;;;;;;5066878;28;20907;-81
2021/10/26 04:58:23;;;;;;;45.90;18.63;;;12.50;99.90;;;;;;5072700;28;20526;-80
2021/10/26 05:00:49;;;;;;;46.97;18.00;;;12.50;99.90;;;;;;5050006;28;20452;-80
2021/10/26 05:03:18;;;;;;;45.30;18.27;;;12.50;99.90;;;;;;5054699;28;20460;-79
2021/10/26 05:05:44;;;;;;;44.37;18.60;;;12.50;99.90;;;;;;5059322;28;20471;-80
2021/10/26 05:08:11;;;;;;;44.77;17.60;;;12.60;99.90;;;;;;5057432;28;20468;-80
2021/10/26 05:10:38;;;;;;;47.17;18.17;;;12.60;99.90;;;;;;5055145;28;20571;-79
2021/10/26 05:13:05;;;;;;;44.13;19.60;;;12.60;99.90;;;;;;5057495;28;20465;-81
2021/10/26 05:15:32;;;;;;;43.20;19.30;;;12.60;99.90;;;;;;5063532;28;20479;-83
2021/10/26 05:17:59;;;;;;;44.33;19.07;;;12.50;99.90;;;;;;5065136;28;20449;-81
2021/10/26 05:20:27;;;;;;;43.60;17.53;;;12.50;99.90;;;;;;5063395;28;20467;-82
2021/10/26 05:22:55;;;;;;;50.97;19.07;;;12.60;99.90;;;;;;5063352;28;20836;-81
2021/10/26 05:25:22;;;;;;;41.33;17.90;;;12.60;99.90;;;;;;5065268;28;20466;-82
2021/10/26 05:27:49;;;;;;;37.80;15.40;;;12.50;99.90;;;;;;5068487;28;20491;-81
2021/10/26 05:30:16;;;;;;;41.23;16.00;;;12.60;99.90;;;;;;5057462;28;20538;-81
2021/10/26 05:32:44;;;;;;;40.33;14.27;;;12.50;99.90;;;;;;5057273;28;20505;-81
2021/10/26 05:35:11;;;;;;;37.23;13.60;;;12.60;99.90;;;;;;5066649;28;20542;-81
2021/10/26 05:37:39;;;;;;;41.50;14.40;;;12.60;99.90;;;;;;5057473;28;20835;-81
2021/10/26 05:40:07;;;;;;;37.63;15.77;;;12.60;99.90;;;;;;5056245;28;20970;-80
2021/10/26 05:42:34;;;;;;;37.73;13.87;;;12.50;99.90;;;;;;5051311;28;20509;-81
2021/10/26 05:45:01;;;;;;;36.47;15.77;;;12.50;99.90;;;;;;5056870;28;20491;-81
2021/10/26 05:47:28;;;;;;;38.63;15.40;;;12.50;99.90;;;;;;5068363;28;20457;-81
2021/10/26 05:49:55;;;;;;;36.93;15.93;;;12.60;99.90;;;;;;5058106;28;20473;-81
2021/10/26 05:52:22;;;;;;;38.40;14.23;;;12.50;99.90;;;;;;5057627;28;20476;-81
2021/10/26 05:54:50;;;;;;;40.77;15.50;;;12.60;99.90;;;;;;5060202;28;20487;-81
2021/10/26 05:57:17;;;;;;;41.70;15.33;;;12.40;99.90;;;;;;5059951;28;20528;-81
2021/10/26 05:59:44;;;;;;;42.70;15.40;;;12.50;99.90;;;;;;5059542;28;20591;-80
2021/10/26 06:02:10;;;;;;;44.37;16.13;;;12.50;99.90;;;;;;5065432;28;20966;-81
2021/10/26 06:04:37;;;;;;;46.13;15.63;;;12.50;99.90;;;;;;5058232;28;20482;-82
2021/10/26 06:07:05;;;;;;;38.63;14.20;;;12.50;99.90;;;;;;5059437;28;20830;-82
2021/10/26 06:09:34;;;;;;;44.17;15.53;;;12.50;99.90;;;;;;5061435;28;20869;-81
2021/10/26 06:12:05;;;;;;;39.10;13.70;;;12.60;99.90;;;;;;5063216;28;20900;-81
2021/10/26 06:14:32;;;;;;;40.17;13.97;;;12.60;99.90;;;;;;5066744;28;20462;-80
2021/10/26 06:17:01;;;;;;;35.13;12.00;;;12.50;99.90;;;;;;5059365;28;20559;-81
2021/10/26 06:19:28;;;;;;;40.67;13.60;;;12.60;99.90;;;;;;5058210;28;20803;-81
2021/10/26 06:21:55;;;;;;;36.23;12.90;;;12.50;99.90;;;;;;5065198;28;20530;-80
2021/10/26 06:24:22;;;;;;;37.50;13.23;;;12.50;99.90;;;;;;5062255;28;20750;-81
2021/10/26 06:26:49;;;;;;;42.47;15.97;;;12.60;99.90;;;;;;5057674;28;20448;-80
2021/10/26 06:29:17;;;;;;;43.10;17.10;;;12.60;99.90;;;;;;5059059;28;20450;-80
2021/10/26 06:31:44;;;;;;;41.70;16.43;;;12.50;99.90;;;;;;5058552;28;20580;-80
2021/10/26 06:34:11;;;;;;;44.50;16.73;;;12.60;99.90;;;;;;5059496;28;20483;-79
2021/10/26 06:36:39;;;;;;;40.80;17.73;;;12.60;99.90;;;;;;5059232;28;20452;-80
2021/10/26 06:39:06;;;;;;;40.93;16.30;;;12.60;99.90;;;;;;5059255;28;20455;-79
2021/10/26 06:41:33;;;;;;;42.13;15.67;;;12.70;99.90;;;;;;5057669;28;20473;-80
2021/10/26 06:44:00;;;;;;;42.37;14.60;;;12.60;99.90;;;;;;5058347;28;20567;-80
2021/10/26 06:46:28;;;;;;;38.07;15.50;;;12.70;99.90;;;;;;5058141;28;20466;-80
2021/10/26 06:48:55;;;;;;;39.70;14.40;;;12.60;99.90;;;;;;5057209;28;20828;-79
2021/10/26 06:51:21;;;;;;;42.67;14.37;;;12.70;99.90;;;;;;5056627;28;20676;-81
2021/10/26 06:53:48;;;;;;;34.30;12.70;;;12.70;99.90;;;;;;5056018;28;20484;-80
2021/10/26 06:56:16;;;;;;;39.97;11.80;;;12.60;99.90;;;;;;5046871;28;20461;-80
2021/10/26 06:58:43;;;;;;;33.77;11.40;;;12.70;99.90;;;;;;5056417;28;20460;-78
2021/10/26 07:01:10;;;;;;;33.60;11.80;;;12.80;99.90;;;;;;5056200;28;20457;-80
2021/10/26 07:03:40;;;;;;;38.30;11.90;;;12.80;99.90;;;;;;5056038;28;20551;-80
2021/10/26 07:06:07;;;;;;;33.87;11.17;;;12.80;99.90;;;;;;5055126;28;20448;-80
2021/10/26 07:08:35;;;;;;;34.83;12.17;;;12.80;99.90;;;;;;5055659;28;20540;-80
2021/10/26 07:11:03;;;;;;;33.80;12.40;;;12.80;99.90;;;;;;5055515;28;20452;-80
2021/10/26 07:13:32;;;;;;;36.03;11.90;;;12.80;99.90;;;;;;5060820;28;20451;-79
2021/10/26 07:15:59;;;;;;;36.80;12.20;;;12.90;99.90;;;;;;5067101;28;20501;-79
2021/10/26 07:18:26;;;;;;;35.57;12.50;;;12.90;99.90;;;;;;5075779;28;20458;-80
2021/10/26 07:20:54;;;;;;;39.87;13.63;;;12.90;99.90;;;;;;5075560;28;20542;-79
2021/10/26 07:23:21;;;;;;;38.57;12.00;;;12.90;99.90;;;;;;5077854;28;20459;-81
2021/10/26 07:25:48;;;;;;;42.80;14.17;;;12.90;99.90;;;;;;5063764;28;20450;-80
2021/10/26 07:28:15;;;;;;;36.37;11.20;;;12.80;99.90;;;;;;5058900;28;20834;-80
2021/10/26 07:30:45;;;;;;;38.53;13.50;;;12.80;99.90;;;;;;5066554;28;20495;-81
2021/10/26 07:33:18;;;;;;;35.87;10.77;;;12.80;99.90;;;;;;5070562;28;20566;-80
2021/10/26 07:35:47;;;;;;;36.30;11.83;;;12.80;99.90;;;;;;5057461;28;20448;-80
2021/10/26 07:38:25;;;;;;;36.10;10.20;;;12.90;99.90;;;;;;5068326;28;20550;-80
2021/10/26 07:40:52;;;;;;;40.00;9.70;;;12.90;99.90;;;;;;5069467;28;20547;-80
2021/10/26 07:43:19;;;;;;;33.23;9.57;;;12.90;99.90;;;;;;5077911;28;20448;-80
2021/10/26 07:45:46;;;;;;;35.40;8.13;;;13.00;99.90;;;;;;5096836;22;20525;-81
2021/10/26 07:48:12;;;;;;;33.53;8.07;;;13.00;99.90;;;;;;5064627;28;20450;-81
2021/10/26 07:50:39;;;;;;;37.97;9.10;;;12.90;99.90;;;;;;5074790;28;20535;-81
2021/10/26 07:53:06;;;;;;;37.40;9.90;;;12.90;99.90;;;;;;5071140;28;20478;-80
2021/10/26 07:55:34;;;;;;;35.10;8.47;;;12.90;99.90;;;;;;5064897;28;20462;-80
2021/10/26 07:58:01;;;;;;;37.10;8.13;;;13.00;99.90;;;;;;5061317;28;20522;-80
2021/10/26 08:00:28;;;;;;;35.73;8.73;;;13.10;99.90;;;;;;5060511;28;21132;-80
2021/10/26 08:02:55;;;;;;;33.70;9.73;;;13.00;99.90;;;;;;5061135;28;20443;-81
2021/10/26 08:05:22;;;;;;;31.13;7.87;;;13.10;99.90;;;;;;5061842;28;20473;-80
2021/10/26 08:07:49;;;;;;;38.87;11.13;;;13.00;99.90;;;;;;5063049;28;20452;-80
2021/10/26 08:10:16;;;;;;;37.57;8.03;;;13.10;99.90;;;;;;5062744;28;20457;-81
2021/10/26 08:12:44;;;;;;;37.93;8.07;;;13.00;99.90;;;;;;5068570;28;20491;-82
2021/10/26 08:15:11;;;;;;;36.93;7.23;;;13.00;99.90;;;;;;5070995;28;20506;-81
2021/10/26 08:17:38;;;;;;;35.73;10.03;;;13.00;99.90;;;;;;5072466;28;20523;-81
2021/10/26 08:20:07;;;;;;;34.47;9.47;;;13.00;99.90;;;;;;5044116;28;20450;-80
2021/10/26 08:22:38;;;;;;;38.30;9.60;;;13.00;99.90;;;;;;5046109;28;20451;-81
2021/10/26 08:25:11;;;;;;;35.83;7.87;;;13.00;99.90;;;;;;5045340;28;20479;-80
2021/10/26 08:27:38;;;;;;;36.57;9.90;;;13.00;99.90;;;;;;5070791;28;20483;-80
2021/10/26 08:30:14;;;;;;;37.53;10.10;;;13.10;99.90;;;;;;5045959;28;20835;-80
2021/10/26 08:35:21;;;;;;;37.63;11.00;;;13.00;99.90;;;;;;5045825;28;20490;-81
2021/10/26 08:37:50;;;;;;;40.60;9.33;;;13.20;99.90;;;;;;5049666;28;20497;-81
2021/10/26 08:40:17;;;;;;;35.93;9.90;;;13.00;99.90;;;;;;5064762;28;20447;-80
2021/10/26 08:42:46;;;;;;;37.33;9.87;;;13.10;99.90;;;;;;5064764;28;21055;-81
2021/10/26 08:45:14;;;;;;;32.90;7.53;;;13.10;99.90;;;;;;5076292;28;20481;-80
2021/10/26 08:47:42;;;;;;;31.40;7.30;;;13.20;99.90;;;;;;5067558;28;20458;-81
2021/10/26 08:50:10;;;;;;;34.67;8.03;;;13.30;99.90;;;;;;5062860;28;20496;-81
2021/10/26 08:52:37;;;;;;;37.13;8.23;;;13.30;99.90;;;;;;5054165;28;20487;-81
2021/10/26 08:55:07;;;;;;;36.53;7.80;;;13.40;99.90;;;;;;5074648;28;20475;-81
2021/10/26 08:57:34;;;;;;;36.47;8.13;;;13.50;99.90;;;;;;5072438;28;20554;-82
2021/10/26 09:00:07;;;;;;;35.53;7.80;;;13.70;99.90;;;;;;5064839;28;20447;-82
2021/10/26 09:02:37;;;;;;;36.53;8.07;;;13.70;99.90;;;;;;5061006;28;20455;-81
2021/10/26 09:05:12;;;;;;;36.87;8.10;;;13.80;99.90;;;;;;5062152;28;20907;-81
2021/10/26 09:07:39;;;;;;;34.67;8.20;;;13.90;99.90;;;;;;5057975;28;20454;-81
2021/10/26 09:10:14;;;;;;;33.30;8.70;;;13.90;99.90;;;;;;5057005;28;20445;-80
2021/10/26 09:18:27;;;;;;;38.10;7.90;;;14.00;99.90;;;;;;5059656;28;20559;-82
2021/10/26 09:20:55;;;;;;;34.13;7.10;;;13.90;99.90;;;;;;5054179;28;20451;-81
2021/10/26 09:23:26;;;;;;;34.60;7.80;;;13.90;99.90;;;;;;5054897;28;20860;-82
2021/10/26 09:25:59;;;;;;;37.07;6.80;;;13.80;99.90;;;;;;5054021;28;20496;-81
2021/10/26 09:28:28;;;;;;;35.27;6.30;;;13.80;99.90;;;;;;5064243;28;20443;-81
2021/10/26 09:31:03;;;;;;;36.43;8.90;;;13.80;99.90;;;;;;5067391;28;20472;-81
2021/10/26 09:33:35;;;;;;;34.80;6.67;;;13.80;99.90;;;;;;5073450;28;20478;-82
2021/10/26 09:36:29;;;;;;;32.70;5.97;;;13.80;99.90;;;;;;5072668;28;20465;-82
2021/10/26 09:39:07;;;;;;;39.17;6.77;;;13.90;99.90;;;;;;5059955;28;20520;-81
2021/10/26 09:41:36;;;;;;;37.23;6.23;;;13.90;99.90;;;;;;5065432;28;20441;-80
2021/10/26 09:44:10;;;;;;;34.40;6.47;;;14.20;99.90;;;;;;5064029;28;20517;-83
2021/10/26 09:46:36;;;;;;;37.67;6.40;;;14.30;99.90;;;;;;5057118;28;20448;-83
2021/10/26 09:49:05;;;;;;;30.50;5.40;;;14.30;99.90;;;;;;5054288;28;20545;-83
2021/10/26 09:51:34;;;;;;;35.07;5.67;;;14.50;99.90;;;;;;5051847;28;20466;-83
2021/10/26 09:54:00;;;;;;;40.27;5.27;;;14.50;99.90;;;;;;5041732;28;20584;-82
2021/10/26 09:56:27;;;;;;;35.47;5.43;;;14.50;99.90;;;;;;5048212;28;20475;-81
2021/10/26 09:59:15;;;;;;;32.13;5.37;;;14.60;99.90;;;;;;5047689;28;20860;-81
2021/10/26 10:01:54;;;;;;;32.87;5.27;;;14.70;99.90;;;;;;5043923;28;20456;-82
2021/10/26 10:04:27;;;;;;;38.30;5.50;;;14.80;99.90;;;;;;5046839;28;20854;-82
2021/10/26 10:06:54;;;;;;;35.53;4.70;;;14.80;99.90;;;;;;5048960;28;20452;-82
2021/10/26 10:09:22;;;;;;;33.17;3.83;;;14.90;99.90;;;;;;5054958;28;20659;-83
2021/10/26 10:12:08;;;;;;;35.80;4.03;;;15.00;99.90;;;;;;5046854;28;20454;-82
2021/10/26 10:14:37;;;;;;;36.50;5.00;;;15.20;99.90;;;;;;5052100;28;21124;-83
2021/10/26 10:17:07;;;;;;;34.03;4.23;;;15.20;99.90;;;;;;5055047;28;20491;-82
2021/10/26 10:19:36;;;;;;;31.30;3.77;;;15.30;99.90;;;;;;5054890;28;20818;-82
2021/10/26 10:22:06;;;;;;;33.70;5.43;;;15.20;99.90;;;;;;5069496;28;20450;-84
2021/10/26 10:24:38;;;;;;;34.00;4.50;;;15.40;99.90;;;;;;5060365;28;20485;-83
2021/10/26 10:27:06;;;;;;;33.23;3.70;;;15.40;99.90;;;;;;5048007;28;20457;-84
2021/10/26 10:29:34;;;;;;;37.13;3.73;;;15.40;99.90;;;;;;5052175;28;20804;-84
2021/10/26 10:32:02;;;;;;;37.40;9.33;;;15.80;99.90;;;;;;5063763;28;20444;-83
2021/10/26 10:34:30;;;;;;;31.13;3.20;;;15.90;99.90;;;;;;5036725;28;20467;-82
2021/10/26 10:37:01;;;;;;;31.40;3.80;;;15.70;99.90;;;;;;5040240;28;20450;-81
2021/10/26 10:39:33;;;;;;;34.33;3.70;;;15.90;99.90;;;;;;5040937;28;20454;-81
2021/10/26 10:42:18;;;;;;;35.40;3.73;;;15.80;99.90;;;;;;5054880;28;20455;-80
2021/10/26 10:44:45;;;;;;;34.23;4.30;;;15.70;99.90;;;;;;5057625;28;20501;-82
2021/10/26 10:47:40;;;;;;;37.13;3.50;;;15.60;99.90;;;;;;5058895;28;20462;-85
2021/10/26 10:50:35;;;;;;;30.23;3.27;;;15.50;99.90;;;;;;5057289;28;20450;-83
2021/10/26 10:53:18;;;;;;;35.60;7.23;;;15.30;99.90;;;;;;5025250;28;20500;-85
2021/10/26 10:55:48;;;;;;;35.87;3.40;;;15.80;99.90;;;;;;5040986;28;20483;-83
2021/10/26 10:58:23;;;;;;;40.80;2.80;;;16.90;99.90;;;;;;5035036;28;20460;-83
2021/10/26 11:00:50;;;;;;;40.83;4.40;;;18.40;99.90;;;;;;5046423;28;20449;-84
2021/10/26 11:03:30;;;;;;;31.13;4.50;;;19.40;99.90;;;;;;5045137;28;20442;-85
2021/10/26 11:05:57;;;;;;;26.33;2.97;;;19.40;99.90;;;;;;5046911;28;20468;-85
2021/10/26 11:08:49;;;;;;;26.73;3.43;;;19.60;99.90;;;;;;5049732;28;20830;-84
2021/10/26 11:11:16;;;;;;;25.43;2.50;;;19.30;99.90;;;;;;5054069;28;20450;-81
2021/10/26 11:13:45;;;;;;;18.80;2.63;;;19.90;99.90;;;;;;5053680;28;20484;-82
2021/10/26 11:16:13;;;;;;;20.10;3.17;;;19.70;99.90;;;;;;5052591;28;20565;-82
2021/10/26 11:18:47;;;;;;;20.93;2.60;;;19.80;99.90;;;;;;5051567;28;20454;-83
2021/10/26 11:21:36;;;;;;;22.77;3.00;;;19.50;99.90;;;;;;5047777;28;21015;-81
2021/10/26 11:24:09;;;;;;;16.77;2.30;;;19.70;99.90;;;;;;5065186;28;20463;-84
2021/10/26 11:26:37;;;;;;;15.60;2.20;;;20.10;99.90;;;;;;5056308;28;20966;-82
2021/10/26 11:29:06;;;;;;;14.33;2.30;;;19.80;99.90;;;;;;5049188;28;20446;-82
2021/10/26 11:31:44;;;;;;;17.43;2.73;;;19.70;99.90;;;;;;5058243;28;20455;-82
2021/10/26 11:34:20;;;;;;;14.70;2.43;;;19.40;99.90;;;;;;5059508;28;20481;-82
2021/10/26 11:36:57;;;;;;;20.63;3.50;;;19.10;99.90;;;;;;5054151;28;20946;-82
2021/10/26 11:39:25;;;;;;;16.43;2.23;;;19.10;99.90;;;;;;5050580;28;20457;-82
2021/10/26 11:41:52;;;;;;;16.57;2.43;;;19.80;99.90;;;;;;5055004;28;20456;-82
2021/10/26 11:44:21;;;;;;;16.57;2.27;;;20.10;99.90;;;;;;5059186;28;20440;-82
2021/10/26 11:46:50;;;;;;;16.97;2.50;;;21.10;99.90;;;;;;5058035;28;20451;-82
2021/10/26 11:49:22;;;;;;;16.77;3.50;;;20.70;99.90;;;;;;5062207;28;20457;-82
2021/10/26 11:51:54;;;;;;;16.30;2.27;;;19.70;99.90;;;;;;5068781;28;20514;-81
2021/10/26 11:54:24;;;;;;;19.23;2.93;;;19.20;99.90;;;;;;5060412;28;20777;-83
2021/10/26 11:57:20;;;;;;;17.07;3.17;;;18.90;99.90;;;;;;5057379;28;20949;-82
2021/10/26 11:59:48;;;;;;;18.37;2.63;;;18.40;99.90;;;;;;5050431;28;20985;-82
2021/10/26 12:02:19;;;;;;;20.00;3.50;;;17.80;99.90;;;;;;5042124;28;20847;-81
2021/10/26 12:05:02;;;;;;;15.43;2.73;;;17.90;99.90;;;;;;5054156;28;20492;-81
2021/10/26 12:07:30;;;;;;;15.47;2.20;;;17.80;99.90;;;;;;5054990;28;20450;-83
2021/10/26 12:09:59;;;;;;;16.67;2.67;;;17.60;99.90;;;;;;5036749;28;20457;-83
2021/10/26 12:12:30;;;;;;;17.53;1.97;;;18.20;99.90;;;;;;5036228;28;20555;-83
2021/10/26 12:15:01;;;;;;;15.30;2.17;;;18.20;99.90;;;;;;5035160;28;20483;-82
2021/10/26 12:17:37;;;;;;;14.93;1.97;;;18.40;99.90;;;;;;5034765;28;20554;-82
2021/10/26 12:20:07;;;;;;;15.47;1.90;;;18.90;99.90;;;;;;5034522;28;20450;-82
2021/10/26 12:22:35;;;;;;;18.40;2.20;;;18.90;99.90;;;;;;5058445;28;20482;-82
2021/10/26 12:25:12;;;;;;;18.20;2.33;;;18.70;99.90;;;;;;5053302;28;21051;-83
2021/10/26 12:27:47;;;;;;;15.10;2.03;;;18.80;99.90;;;;;;5038170;28;20565;-83
2021/10/26 12:30:20;;;;;;;15.73;1.70;;;18.90;99.90;;;;;;5042161;28;20548;-82
2021/10/26 12:33:02;;;;;;;15.23;1.63;;;19.40;99.90;;;;;;5049885;28;20451;-83
2021/10/26 12:35:31;;;;;;;14.27;2.27;;;19.50;99.90;;;;;;5060766;28;20473;-84
2021/10/26 12:38:13;;;;;;;14.33;2.17;;;19.00;99.90;;;;;;5039948;28;20462;-83
2021/10/26 12:40:43;;;;;;;14.80;2.00;;;18.70;99.90;;;;;;5057772;28;20451;-83
2021/10/26 12:43:12;;;;;;;14.27;1.70;;;18.40;99.90;;;;;;5056534;28;20967;-83
2021/10/26 12:45:41;;;;;;;15.47;2.33;;;18.20;99.90;;;;;;5039969;28;20486;-83
2021/10/26 12:48:09;;;;;;;14.80;2.57;;;17.90;99.90;;;;;;5053452;28;20457;-83
2021/10/26 12:50:46;;;;;;;18.23;2.37;;;17.90;99.90;;;;;;5051364;28;20452;-83